台北 の空港の天気 - METARとTAF

台湾桃園国際空港 ( RCTP / TPE ) - 台湾 台北市
飛行場実況気象(Metar)
観測時間11/20 17:21 CST (11/20 09:21 UTC)
風向・風速北東 10m/s
視程8000m
天気現象弱い雨
全天の4割程度の雲 雲底高度 90m
全天の8割程度の雲 雲底高度 180m
全天の8割程度の雲 雲底高度 610m
気温19℃
湿度94%
気圧1019hPa
METARRCTP 200921Z 04020KT 8000 -RA SCT003 BKN006 BKN020 19/18 Q1019 WS ALL RWY NOSIG RMK A3009
過去の天気等 Google飛行場航空写真 Wunderground天気予報

過去48時間のMETAR

飛行場予報(TAF)
発表時間: 11/20 13:00 CST (11/20 05:00 UTC)
予報対象時間: 20日14時 CST ~ 21日20時 CST
風向・風速北東 8m/s
視程8,000m
全天の4割程度の雲 雲底高度 210m
全天の8割程度の雲 雲底高度 340m
全天の8割程度の雲 雲底高度 910m
20日14時 CST ~ 20日22時 CST に一時的に
風向・風速北東 9m/s 瞬間風速 14m/s
視程5,000m
天気現象
全天の4割程度の雲 雲底高度 150m
全天の8割程度の雲 雲底高度 210m
全天の8割程度の雲 雲底高度 610m
21日2時 CST ~ 21日6時 CST に一時的に
風向・風速東北東 5m/s
視程4,000m
天気現象もや
全天の4割程度の雲 雲底高度 90m
全天の8割程度の雲 雲底高度 180m
全天の8割程度の雲 雲底高度 610m
21日6時 CST ~ 21日8時 CST に徐々に
少しの雲 雲底高度 300m
全天の8割程度の雲 雲底高度 610m
全天の8割程度の雲 雲底高度 1,220m
21日11時 CST ~ 21日17時 CST に一時的に
風向・風速東 5m/s
少しの雲 雲底高度 460m
全天の8割程度の雲 雲底高度 980m
TAF RCTP 200500Z 2006/2112 05015KT 8000 SCT007 BKN011 BKN030
TEMPO 2006/2014 05018G28KT 5000 RA SCT005 BKN007 BKN020
TEMPO 2018/2022 07010KT 4000 BR SCT003 BKN006 BKN020
BECMG 2022/2024 FEW010 BKN020 BKN040
TEMPO 2103/2109 08010KT FEW015 BKN032